createdAt,value
2023-03-24T00:00:26.935Z,2.10
2023-03-24T00:02:54.011Z,2.08
2023-03-24T00:05:23.441Z,1.90
2023-03-24T00:07:54.784Z,2.80
2023-03-24T00:10:23.249Z,1.90
2023-03-24T00:12:51.812Z,2.17
2023-03-24T00:15:21.420Z,2.53
2023-03-24T00:17:52.728Z,2.58
2023-03-24T00:20:22.821Z,2.88
2023-03-24T00:22:57.038Z,2.10
2023-03-24T00:25:28.548Z,2.60
2023-03-24T00:27:57.554Z,2.30
2023-03-24T00:30:26.114Z,1.98
2023-03-24T00:32:54.228Z,2.17
2023-03-24T00:35:22.622Z,2.15
2023-03-24T00:37:51.876Z,2.67
2023-03-24T00:40:21.046Z,2.65
2023-03-24T00:42:50.621Z,2.28
2023-03-24T00:45:23.253Z,2.17
2023-03-24T00:47:54.628Z,2.28
2023-03-24T00:50:26.598Z,2.63
2023-03-24T00:52:55.736Z,2.22
2023-03-24T00:55:23.141Z,2.47
2023-03-24T00:57:51.240Z,2.90
2023-03-24T01:00:25.885Z,3.28
2023-03-24T01:02:56.810Z,3.35
2023-03-24T01:05:29.731Z,2.50
2023-03-24T01:07:59.352Z,3.45
2023-03-24T01:10:30.258Z,3.08
2023-03-24T01:13:00.331Z,2.75
2023-03-24T01:15:33.878Z,2.47
2023-03-24T01:18:04.656Z,2.67
2023-03-24T01:20:33.246Z,2.47
2023-03-24T01:23:02.552Z,2.40
2023-03-24T01:25:30.623Z,2.70
2023-03-24T01:27:58.040Z,3.22
2023-03-24T01:30:27.979Z,2.63
2023-03-24T01:32:55.925Z,2.70
2023-03-24T01:35:28.474Z,2.13
2023-03-24T01:37:57.049Z,3.50
2023-03-24T01:40:29.531Z,2.65
2023-03-24T01:42:57.796Z,3.75
2023-03-24T01:45:42.244Z,2.50
2023-03-24T01:48:37.806Z,2.50
2023-03-24T01:51:15.620Z,2.25
2023-03-24T01:54:08.476Z,2.70
2023-03-24T01:56:40.017Z,2.67
2023-03-24T01:59:15.156Z,2.90
2023-03-24T02:02:06.721Z,2.25
2023-03-24T02:04:50.451Z,2.30
2023-03-24T02:07:34.781Z,2.55
2023-03-24T02:10:09.570Z,2.70
2023-03-24T02:12:37.193Z,3.17
2023-03-24T02:15:08.939Z,2.40
2023-03-24T02:18:01.962Z,2.08
2023-03-24T02:20:38.366Z,2.45
2023-03-24T02:23:17.323Z,2.22
2023-03-24T02:26:26.507Z,2.60
2023-03-24T02:28:59.050Z,2.42
2023-03-24T02:32:02.001Z,2.47
2023-03-24T02:35:15.651Z,2.47
2023-03-24T02:38:23.892Z,2.50
2023-03-24T02:41:32.259Z,2.60
2023-03-24T02:45:11.750Z,2.80
2023-03-24T02:47:56.578Z,2.28
2023-03-24T02:50:36.772Z,2.47
2023-03-24T02:53:28.346Z,2.85
2023-03-24T02:56:49.064Z,2.45
2023-03-24T02:59:59.275Z,2.70
2023-03-24T03:03:28.568Z,2.90
2023-03-24T03:06:07.444Z,2.75
2023-03-24T03:08:36.787Z,2.67
2023-03-24T03:11:07.425Z,2.50
2023-03-24T03:13:51.094Z,3.22
2023-03-24T03:16:29.093Z,2.45
2023-03-24T03:19:01.610Z,1.52
2023-03-24T03:21:36.568Z,1.52
2023-03-24T03:24:20.045Z,1.40
2023-03-24T03:26:49.128Z,1.20
2023-03-24T03:29:23.260Z,1.27
2023-03-24T03:32:01.045Z,0.90
2023-03-24T03:34:54.756Z,0.95
2023-03-24T03:37:36.574Z,0.80
2023-03-24T03:40:14.952Z,0.68
2023-03-24T03:42:47.083Z,0.93
2023-03-24T03:45:14.648Z,0.80
2023-03-24T03:47:42.494Z,0.80
2023-03-24T03:50:10.302Z,0.90
2023-03-24T03:52:41.681Z,1.13
2023-03-24T03:55:09.505Z,1.13
2023-03-24T03:57:36.735Z,0.90
2023-03-24T04:00:26.465Z,1.15
2023-03-24T04:03:53.163Z,1.20
2023-03-24T04:06:57.480Z,0.95
2023-03-24T04:09:32.978Z,0.70
2023-03-24T04:12:25.071Z,0.95
2023-03-24T04:15:37.099Z,0.70
2023-03-24T04:18:51.054Z,0.70
2023-03-24T04:21:48.682Z,0.77
2023-03-24T04:24:42.533Z,1.63
2023-03-24T04:27:21.995Z,2.15
2023-03-24T04:30:45.478Z,1.73
2023-03-24T04:36:17.265Z,1.50
2023-03-24T04:39:25.610Z,1.13
2023-03-24T04:41:55.011Z,3.00
2023-03-24T04:44:26.918Z,1.80
2023-03-24T04:47:33.477Z,2.25
2023-03-24T04:50:13.200Z,2.00
2023-03-24T04:52:42.618Z,1.20
2023-03-24T04:55:49.607Z,1.63
2023-03-24T04:58:23.659Z,1.35
2023-03-24T05:00:51.716Z,2.13
2023-03-24T05:03:19.522Z,2.20
2023-03-24T05:05:49.144Z,1.50
2023-03-24T05:08:18.018Z,3.10
2023-03-24T05:10:46.463Z,2.45
2023-03-24T05:13:14.703Z,1.27
2023-03-24T05:15:54.255Z,2.13
2023-03-24T05:18:47.715Z,1.77
2023-03-24T05:21:14.823Z,2.63
2023-03-24T05:23:41.842Z,2.88
2023-03-24T05:26:09.244Z,2.97
2023-03-24T05:28:49.466Z,2.30
2023-03-24T05:31:16.624Z,2.58
2023-03-24T05:33:48.788Z,3.60
2023-03-24T05:36:18.720Z,3.00
2023-03-24T05:38:53.949Z,2.03
2023-03-24T05:41:22.582Z,2.13
2023-03-24T05:43:49.670Z,3.25
2023-03-24T05:46:17.821Z,3.10
2023-03-24T05:48:47.037Z,2.30
2023-03-24T05:51:16.654Z,3.25
2023-03-24T05:53:45.214Z,2.58
2023-03-24T05:56:18.290Z,3.10
2023-03-24T05:59:12.039Z,2.38
2023-03-24T06:02:05.752Z,2.17
2023-03-24T06:04:46.501Z,4.30
2023-03-24T06:07:16.677Z,2.20
2023-03-24T06:09:52.554Z,2.88
2023-03-24T06:12:21.797Z,2.05
2023-03-24T06:15:01.456Z,3.40
2023-03-24T06:17:32.337Z,2.50
2023-03-24T06:20:13.742Z,3.22
2023-03-24T06:23:10.494Z,2.58
2023-03-24T06:26:03.984Z,4.40
2023-03-24T06:28:34.490Z,5.13
2023-03-24T06:31:07.176Z,3.60
2023-03-24T06:33:36.749Z,4.35
2023-03-24T06:36:05.534Z,3.30
2023-03-24T06:38:33.553Z,3.42
2023-03-24T06:41:03.608Z,4.25
2023-03-24T06:43:32.249Z,2.60
2023-03-24T06:46:00.170Z,3.22
2023-03-24T06:48:28.590Z,3.97
2023-03-24T06:51:02.508Z,3.30
2023-03-24T06:53:29.658Z,3.72
2023-03-24T06:55:56.941Z,3.03
2023-03-24T06:58:26.346Z,2.97
2023-03-24T07:01:07.430Z,5.10
2023-03-24T07:03:36.701Z,3.30
2023-03-24T07:06:18.509Z,3.42
2023-03-24T07:08:52.368Z,4.18
2023-03-24T07:11:21.783Z,2.90
2023-03-24T07:13:53.265Z,3.85
2023-03-24T07:16:20.855Z,3.38
2023-03-24T07:18:54.840Z,2.33
2023-03-24T07:21:22.191Z,3.60
2023-03-24T07:23:51.757Z,3.22
2023-03-24T07:26:27.387Z,3.13
2023-03-24T07:28:58.706Z,2.22
2023-03-24T07:31:48.882Z,3.50
2023-03-24T07:34:16.284Z,2.22
2023-03-24T07:36:44.268Z,3.55
2023-03-24T07:39:16.724Z,3.25
2023-03-24T07:41:44.083Z,2.40
2023-03-24T07:44:29.747Z,2.72
2023-03-24T07:47:00.724Z,2.08
2023-03-24T07:49:27.881Z,2.75
2023-03-24T07:52:06.733Z,3.30
2023-03-24T07:54:45.603Z,2.60
2023-03-24T07:57:35.428Z,3.08
2023-03-24T08:00:21.650Z,2.50
2023-03-24T08:03:01.977Z,2.22
2023-03-24T08:05:48.951Z,1.92
2023-03-24T08:08:20.401Z,3.08
2023-03-24T08:10:50.461Z,2.00
2023-03-24T08:13:18.233Z,2.50
2023-03-24T08:15:45.695Z,3.33
2023-03-24T08:18:12.902Z,2.53
2023-03-24T08:20:39.986Z,1.85
2023-03-24T08:23:08.586Z,2.15
2023-03-24T08:25:36.521Z,2.13
2023-03-24T08:28:04.439Z,2.28
2023-03-24T08:30:32.094Z,2.17
2023-03-24T08:33:02.707Z,4.03
2023-03-24T08:35:33.637Z,3.17
2023-03-24T08:38:03.137Z,2.72
2023-03-24T08:40:34.583Z,2.22
2023-03-24T08:43:04.882Z,2.22
2023-03-24T08:45:32.899Z,2.38
2023-03-24T08:48:05.036Z,2.08
2023-03-24T08:50:37.763Z,2.55
2023-03-24T08:53:05.038Z,2.42
2023-03-24T08:55:32.362Z,3.67
2023-03-24T08:58:00.130Z,1.80
2023-03-24T09:00:28.907Z,2.08
2023-03-24T09:02:56.988Z,1.60
2023-03-24T09:05:40.784Z,3.17
2023-03-24T09:08:12.614Z,2.35
2023-03-24T09:10:41.754Z,2.33
2023-03-24T09:13:09.507Z,2.40
2023-03-24T09:15:36.907Z,4.93
2023-03-24T09:18:04.246Z,1.75
2023-03-24T09:20:31.343Z,2.75
2023-03-24T09:23:01.066Z,1.70
2023-03-24T09:25:28.563Z,3.60
2023-03-24T09:27:56.971Z,1.65
2023-03-24T09:30:24.165Z,3.47
2023-03-24T09:32:51.223Z,2.80
2023-03-24T09:35:18.312Z,1.40
2023-03-24T09:37:45.603Z,2.22
2023-03-24T09:40:39.649Z,2.03
2023-03-24T09:43:26.384Z,1.80
2023-03-24T09:45:57.627Z,2.58
2023-03-24T09:48:49.795Z,2.17
2023-03-24T09:51:33.360Z,1.85
2023-03-24T09:54:27.327Z,1.80
2023-03-24T09:56:56.024Z,1.85
2023-03-24T09:59:28.788Z,1.80
2023-03-24T10:01:57.756Z,2.42
2023-03-24T10:04:28.178Z,2.05
2023-03-24T10:07:39.840Z,1.27
2023-03-24T10:10:31.293Z,1.83
2023-03-24T10:13:17.774Z,1.20
2023-03-24T10:15:55.927Z,2.20
2023-03-24T10:18:40.394Z,1.77
2023-03-24T10:21:25.925Z,2.67
2023-03-24T10:24:21.645Z,1.17
2023-03-24T10:27:23.386Z,1.75
2023-03-24T10:29:56.427Z,1.52
2023-03-24T10:32:27.484Z,1.25
2023-03-24T10:35:09.507Z,1.25
2023-03-24T10:37:37.591Z,1.40
2023-03-24T10:40:18.739Z,1.00
2023-03-24T10:42:48.967Z,1.50
2023-03-24T10:45:27.525Z,2.30
2023-03-24T10:47:59.011Z,1.92
2023-03-24T10:50:29.218Z,1.70
2023-03-24T10:52:57.504Z,1.20
2023-03-24T10:55:38.977Z,1.13
2023-03-24T10:58:29.700Z,2.05
2023-03-24T11:00:59.637Z,1.40
2023-03-24T11:03:36.969Z,1.45
2023-03-24T11:06:05.772Z,1.70
2023-03-24T11:08:39.692Z,1.73
2023-03-24T11:11:24.840Z,1.67
2023-03-24T11:14:02.217Z,1.83
2023-03-24T11:16:38.855Z,1.75
2023-03-24T11:19:20.259Z,2.03
2023-03-24T11:21:52.350Z,2.28
2023-03-24T11:24:20.895Z,1.88
2023-03-24T11:27:03.849Z,1.02
2023-03-24T11:29:39.057Z,1.88
2023-03-24T11:32:21.027Z,1.73
2023-03-24T11:35:06.855Z,1.58
2023-03-24T11:37:36.218Z,1.45
2023-03-24T11:40:26.151Z,1.83
2023-03-24T11:43:00.456Z,1.90
2023-03-24T11:45:42.692Z,2.72
2023-03-24T11:48:21.608Z,1.75
2023-03-24T11:50:49.113Z,2.05
2023-03-24T11:53:22.421Z,1.45
2023-03-24T11:56:07.345Z,1.30
2023-03-24T11:58:50.445Z,0.85
2023-03-24T12:01:31.024Z,1.00
2023-03-24T12:04:29.657Z,1.15
2023-03-24T12:07:57.414Z,1.00
2023-03-24T12:11:19.795Z,0.77
2023-03-24T12:13:50.405Z,0.50
2023-03-24T12:16:56.950Z,0.88
2023-03-24T12:19:37.067Z,0.90
2023-03-24T12:22:15.392Z,1.00
2023-03-24T12:25:19.301Z,1.05
2023-03-24T12:28:10.697Z,0.85
2023-03-24T12:31:25.347Z,1.23
2023-03-24T12:34:33.735Z,1.35
2023-03-24T12:37:27.279Z,1.10
2023-03-24T12:40:06.280Z,1.00
2023-03-24T12:42:42.644Z,1.17
2023-03-24T12:46:00.309Z,1.23
2023-03-24T12:49:10.958Z,0.80
2023-03-24T12:52:15.315Z,1.17
2023-03-24T12:55:04.894Z,1.17
2023-03-24T12:57:45.315Z,0.93
2023-03-24T13:00:20.753Z,1.08
2023-03-24T13:03:01.840Z,0.60
2023-03-24T13:05:37.592Z,1.75
2023-03-24T13:10:42.200Z,0.77
2023-03-24T13:13:22.835Z,0.90
2023-03-24T13:15:57.482Z,1.23
2023-03-24T13:18:49.026Z,0.93
2023-03-24T13:21:22.250Z,1.27
2023-03-24T13:24:11.053Z,0.80
2023-03-24T13:27:00.910Z,1.63
2023-03-24T13:29:50.859Z,0.90
2023-03-24T13:32:32.281Z,1.35
2023-03-24T13:35:19.783Z,2.67
2023-03-24T13:38:14.854Z,1.42
2023-03-24T13:40:43.733Z,2.35
2023-03-24T13:43:16.435Z,1.80
2023-03-24T13:45:49.392Z,1.60
2023-03-24T13:48:27.648Z,1.33
2023-03-24T13:51:02.872Z,1.80
2023-03-24T13:53:40.408Z,1.15
2023-03-24T13:56:09.128Z,1.30
2023-03-24T13:59:24.549Z,1.27
2023-03-24T14:02:17.705Z,0.95
2023-03-24T14:05:27.688Z,1.52
2023-03-24T14:08:01.082Z,1.08
2023-03-24T14:10:45.931Z,1.98
2023-03-24T14:13:12.799Z,1.10
2023-03-24T14:15:51.687Z,1.27
2023-03-24T14:18:26.044Z,1.10
2023-03-24T14:20:56.404Z,1.08
2023-03-24T14:23:42.984Z,1.35
2023-03-24T14:26:16.438Z,1.83
2023-03-24T14:28:46.858Z,1.80
2023-03-24T14:31:15.682Z,1.48
2023-03-24T14:34:02.235Z,0.93
2023-03-24T14:36:32.844Z,1.10
2023-03-24T14:39:47.293Z,1.02
2023-03-24T14:42:33.666Z,0.70
2023-03-24T14:45:22.224Z,0.85
2023-03-24T14:48:00.066Z,1.50
2023-03-24T14:50:29.008Z,1.00
2023-03-24T14:53:02.659Z,0.90
2023-03-24T14:55:30.943Z,1.27
2023-03-24T14:58:23.858Z,0.82
2023-03-24T15:03:58.210Z,0.70
2023-03-24T15:06:25.352Z,0.73
2023-03-24T15:08:56.610Z,1.58
2023-03-24T15:11:31.051Z,0.77
2023-03-24T15:14:00.157Z,0.85
2023-03-24T15:16:34.123Z,0.45
2023-03-24T15:19:29.747Z,0.70
2023-03-24T15:22:09.544Z,0.85
2023-03-24T15:24:38.392Z,0.50
2023-03-24T15:27:08.369Z,1.13
2023-03-24T15:29:38.626Z,0.50
2023-03-24T15:32:06.489Z,0.68
2023-03-24T15:34:40.996Z,0.47
2023-03-24T15:37:40.639Z,0.20
2023-03-24T15:40:30.430Z,0.45
2023-03-24T15:43:01.269Z,0.30
2023-03-24T15:45:38.401Z,0.40
2023-03-24T15:48:14.872Z,0.50
2023-03-24T15:51:00.538Z,0.60
2023-03-24T15:53:49.217Z,0.68
2023-03-24T15:56:27.813Z,0.38
2023-03-24T15:59:03.903Z,2.25
2023-03-24T16:01:31.683Z,0.90
2023-03-24T16:04:05.273Z,0.70
2023-03-24T16:06:37.165Z,1.48
2023-03-24T16:09:13.823Z,1.25
2023-03-24T16:11:42.212Z,0.82
2023-03-24T16:14:30.174Z,0.45
2023-03-24T16:17:03.822Z,0.50
2023-03-24T16:19:31.010Z,0.82
2023-03-24T16:21:58.183Z,1.23
2023-03-24T16:24:25.456Z,0.68
2023-03-24T16:26:52.657Z,0.95
2023-03-24T16:29:22.839Z,1.00
2023-03-24T16:31:55.674Z,1.83
2023-03-24T16:34:23.402Z,1.00
2023-03-24T16:36:54.274Z,0.80
2023-03-24T16:39:24.985Z,1.52
2023-03-24T16:41:52.384Z,1.52
2023-03-24T16:44:21.058Z,0.73
2023-03-24T16:46:52.057Z,0.93
2023-03-24T16:49:19.932Z,0.90
2023-03-24T16:51:47.742Z,0.75
2023-03-24T16:54:15.077Z,0.60
2023-03-24T16:56:42.520Z,0.77
2023-03-24T16:59:10.642Z,0.77
2023-03-24T17:01:45.341Z,0.70
2023-03-24T17:04:19.392Z,0.88
2023-03-24T17:06:52.897Z,0.80
2023-03-24T17:09:21.035Z,1.05
2023-03-24T17:11:54.433Z,1.00
2023-03-24T17:14:22.212Z,1.65
2023-03-24T17:16:51.272Z,1.20
2023-03-24T17:19:21.563Z,1.85
2023-03-24T17:22:03.771Z,1.55
2023-03-24T17:24:38.087Z,1.40
2023-03-24T17:27:17.905Z,1.08
2023-03-24T17:29:46.356Z,1.20
2023-03-24T17:32:13.410Z,1.23
2023-03-24T17:34:43.062Z,1.42
2023-03-24T17:37:10.332Z,1.77
2023-03-24T17:39:39.172Z,1.73
2023-03-24T17:42:06.316Z,1.83
2023-03-24T17:44:33.775Z,1.88
2023-03-24T17:47:00.963Z,1.40
2023-03-24T17:49:28.376Z,1.23
2023-03-24T17:51:55.509Z,1.65
2023-03-24T17:54:22.558Z,1.63
2023-03-24T17:56:49.585Z,1.65
2023-03-24T17:59:17.167Z,2.10
2023-03-24T18:01:44.320Z,1.80
2023-03-24T18:04:11.525Z,2.03
2023-03-24T18:06:38.742Z,2.28
2023-03-24T18:09:06.684Z,2.45
2023-03-24T18:11:33.796Z,1.33
2023-03-24T18:14:01.143Z,1.83
2023-03-24T18:16:31.808Z,2.53
2023-03-24T18:19:00.600Z,2.25
2023-03-24T18:21:28.604Z,2.17
2023-03-24T18:23:56.263Z,2.60
2023-03-24T18:26:23.918Z,1.65
2023-03-24T18:28:51.501Z,1.23
2023-03-24T18:31:21.313Z,1.55
2023-03-24T18:33:49.561Z,0.95
2023-03-24T18:36:26.609Z,1.10
2023-03-24T18:39:04.521Z,1.40
2023-03-24T18:41:32.240Z,2.70
2023-03-24T18:44:00.106Z,1.35
2023-03-24T18:46:27.758Z,1.35
2023-03-24T18:48:55.721Z,1.40
2023-03-24T18:51:25.414Z,2.28
2023-03-24T18:53:52.753Z,2.03
2023-03-24T18:56:21.889Z,2.58
2023-03-24T18:58:51.178Z,1.58
2023-03-24T19:01:22.706Z,1.02
2023-03-24T19:03:54.730Z,2.85
2023-03-24T19:06:22.962Z,1.73
2023-03-24T19:08:52.224Z,1.77
2023-03-24T19:11:19.468Z,1.60
2023-03-24T19:13:49.843Z,1.40
2023-03-24T19:16:19.048Z,1.00
2023-03-24T19:18:48.544Z,1.00
2023-03-24T19:21:16.921Z,1.35
2023-03-24T19:23:46.622Z,1.38
2023-03-24T19:26:16.148Z,1.42
2023-03-24T19:28:43.859Z,1.10
2023-03-24T19:31:17.433Z,1.50
2023-03-24T19:33:45.202Z,1.15
2023-03-24T19:36:12.390Z,1.08
2023-03-24T19:38:40.165Z,1.00
2023-03-24T19:41:11.199Z,1.67
2023-03-24T19:43:38.578Z,0.98
2023-03-24T19:46:06.596Z,1.10
2023-03-24T19:48:34.549Z,2.75
2023-03-24T19:51:01.799Z,1.20
2023-03-24T19:53:28.936Z,0.90
2023-03-24T19:55:58.217Z,0.90
2023-03-24T19:58:25.808Z,0.80
2023-03-24T20:00:53.352Z,0.93
2023-03-24T20:03:20.924Z,0.65
2023-03-24T20:05:49.258Z,0.90
2023-03-24T20:08:16.705Z,1.35
2023-03-24T20:10:43.888Z,0.70
2023-03-24T20:13:11.426Z,0.73
2023-03-24T20:15:38.549Z,1.10
2023-03-24T20:18:06.807Z,0.80
2023-03-24T20:20:33.901Z,0.80
2023-03-24T20:23:00.962Z,0.73
2023-03-24T20:25:28.767Z,1.20
2023-03-24T20:27:55.975Z,1.27
2023-03-24T20:30:24.151Z,1.48
2023-03-24T20:32:56.303Z,1.17
2023-03-24T20:35:23.760Z,1.63
2023-03-24T20:37:50.839Z,1.58
2023-03-24T20:40:17.952Z,1.13
2023-03-24T20:42:44.877Z,0.93
2023-03-24T20:45:12.385Z,1.30
2023-03-24T20:47:39.366Z,1.85
2023-03-24T20:50:07.353Z,0.90
2023-03-24T20:52:34.962Z,1.17
2023-03-24T20:55:05.611Z,1.10
2023-03-24T20:57:33.711Z,0.98
2023-03-24T21:00:01.202Z,0.90
2023-03-24T21:02:28.759Z,1.35
2023-03-24T21:04:56.131Z,1.40
2023-03-24T21:07:23.677Z,1.05
2023-03-24T21:09:51.292Z,1.08
2023-03-24T21:12:18.592Z,1.02
2023-03-24T21:14:47.039Z,1.33
2023-03-24T21:17:20.607Z,1.45
2023-03-24T21:19:48.044Z,1.35
2023-03-24T21:22:15.482Z,1.17
2023-03-24T21:24:43.047Z,0.77
2023-03-24T21:27:10.845Z,0.80
2023-03-24T21:29:38.386Z,1.67
2023-03-24T21:32:06.141Z,0.95
2023-03-24T21:34:33.767Z,0.90
2023-03-24T21:37:01.608Z,0.98
2023-03-24T21:39:29.317Z,0.88
2023-03-24T21:41:56.663Z,0.85
2023-03-24T21:44:25.055Z,0.85
2023-03-24T21:46:52.425Z,0.77
2023-03-24T21:49:22.775Z,1.10
2023-03-24T21:51:54.791Z,1.00
2023-03-24T21:54:22.820Z,1.02
2023-03-24T21:56:50.286Z,1.00
2023-03-24T21:59:17.870Z,1.10
2023-03-24T22:01:45.338Z,1.00
2023-03-24T22:04:13.608Z,2.10
2023-03-24T22:06:40.842Z,1.65
2023-03-24T22:09:10.207Z,1.10
2023-03-24T22:11:42.622Z,0.88
2023-03-24T22:14:10.652Z,1.00
2023-03-24T22:16:38.012Z,1.30
2023-03-24T22:19:05.782Z,0.70
2023-03-24T22:21:33.229Z,0.90
2023-03-24T22:24:00.390Z,0.73
2023-03-24T22:26:27.623Z,1.35
2023-03-24T22:28:56.372Z,1.30
2023-03-24T22:31:24.352Z,1.30
2023-03-24T22:33:51.875Z,0.93
2023-03-24T22:36:19.237Z,1.05
2023-03-24T22:38:46.783Z,1.25
2023-03-24T22:41:14.277Z,1.55
2023-03-24T22:43:42.323Z,1.17
2023-03-24T22:46:12.836Z,1.52
2023-03-24T22:48:40.497Z,1.30
2023-03-24T22:51:09.285Z,1.10
2023-03-24T22:53:36.862Z,1.67
2023-03-24T22:56:06.443Z,1.40
2023-03-24T22:58:35.837Z,2.53
2023-03-24T23:01:03.884Z,1.50
2023-03-24T23:03:31.076Z,1.73
2023-03-24T23:06:03.425Z,1.83
2023-03-24T23:08:32.475Z,2.47
2023-03-24T23:11:00.794Z,1.40
2023-03-24T23:13:30.863Z,1.67
2023-03-24T23:15:58.264Z,1.30
2023-03-24T23:18:25.615Z,1.70
2023-03-24T23:21:07.242Z,1.40
2023-03-24T23:23:36.273Z,1.23
2023-03-24T23:26:05.729Z,1.08
2023-03-24T23:28:34.390Z,1.23
2023-03-24T23:31:01.801Z,1.25
2023-03-24T23:33:29.210Z,1.25
2023-03-24T23:35:58.701Z,1.10
2023-03-24T23:38:26.574Z,1.08
2023-03-24T23:40:53.751Z,1.10
2023-03-24T23:43:21.482Z,1.63
2023-03-24T23:45:48.840Z,0.90
2023-03-24T23:48:16.635Z,1.52
2023-03-24T23:50:49.352Z,1.25
2023-03-24T23:53:16.616Z,1.13
2023-03-24T23:55:43.803Z,1.33
2023-03-24T23:58:11.057Z,0.80
